createdAt,value
2018-02-19T00:02:07.045Z,76.20
2018-02-19T00:04:46.247Z,76.20
2018-02-19T00:07:24.837Z,77.60
2018-02-19T00:10:03.296Z,78.60
2018-02-19T00:12:42.840Z,77.00
2018-02-19T00:15:22.386Z,76.50
2018-02-19T00:18:01.874Z,76.60
2018-02-19T00:20:40.217Z,76.50
2018-02-19T00:23:19.647Z,75.10
2018-02-19T00:25:58.369Z,75.00
2018-02-19T00:28:37.177Z,76.00
2018-02-19T00:31:18.669Z,75.90
2018-02-19T00:33:58.356Z,76.60
2018-02-19T00:36:37.772Z,76.60
2018-02-19T00:39:17.230Z,76.80
2018-02-19T00:41:55.874Z,77.10
2018-02-19T00:44:35.483Z,76.50
2018-02-19T00:47:15.958Z,75.90
2018-02-19T00:49:53.497Z,75.40
2018-02-19T00:52:32.135Z,75.30
2018-02-19T00:55:13.665Z,74.90
2018-02-19T00:57:55.187Z,75.20
2018-02-19T01:00:33.682Z,75.70
2018-02-19T01:03:14.429Z,76.20
2018-02-19T01:05:56.278Z,75.80
2018-02-19T01:08:34.885Z,76.00
2018-02-19T01:11:14.415Z,76.40
2018-02-19T01:13:54.168Z,76.60
2018-02-19T01:16:33.763Z,76.60
2018-02-19T01:19:13.131Z,77.10
2018-02-19T01:21:51.776Z,76.80
2018-02-19T01:24:31.399Z,76.80
2018-02-19T01:27:12.247Z,77.10
2018-02-19T01:29:52.732Z,76.90
2018-02-19T01:32:31.722Z,77.70
2018-02-19T01:35:12.237Z,77.50
2018-02-19T01:37:50.832Z,78.00
2018-02-19T01:40:30.286Z,78.10
2018-02-19T01:43:08.848Z,78.00
2018-02-19T01:45:46.587Z,78.50
2018-02-19T01:48:26.950Z,79.10
2018-02-19T01:51:06.701Z,80.30
2018-02-19T01:53:46.307Z,79.50
2018-02-19T01:56:26.468Z,79.50
2018-02-19T01:59:04.622Z,75.30
2018-02-19T02:01:45.270Z,71.80
2018-02-19T02:04:23.719Z,72.00
2018-02-19T02:07:03.327Z,72.40
2018-02-19T02:09:41.705Z,73.40
2018-02-19T02:12:20.340Z,73.60
2018-02-19T02:14:59.708Z,74.50
2018-02-19T02:17:37.146Z,74.50
2018-02-19T02:20:15.726Z,75.00
2018-02-19T02:22:54.066Z,75.00
2018-02-19T02:25:32.552Z,75.30
2018-02-19T02:28:11.303Z,75.80
2018-02-19T02:30:49.968Z,76.80
2018-02-19T02:33:29.658Z,77.10
2018-02-19T02:36:14.413Z,77.40
2018-02-19T02:38:52.871Z,77.70
2018-02-19T02:41:33.511Z,78.10
2018-02-19T02:44:12.156Z,78.00
2018-02-19T02:46:52.366Z,78.80
2018-02-19T02:49:31.445Z,78.50
2018-02-19T02:52:10.977Z,79.00
2018-02-19T02:54:51.048Z,79.30
2018-02-19T02:57:29.905Z,79.90
2018-02-19T03:00:08.407Z,80.40
2018-02-19T03:02:50.009Z,81.10
2018-02-19T03:05:29.556Z,81.50
2018-02-19T03:08:10.251Z,81.20
2018-02-19T03:10:48.657Z,81.00
2018-02-19T03:13:29.303Z,81.60
2018-02-19T03:16:07.817Z,80.10
2018-02-19T03:18:46.251Z,79.30
2018-02-19T03:21:24.779Z,78.60
2018-02-19T03:24:04.374Z,78.00
2018-02-19T03:26:42.931Z,78.00
2018-02-19T03:29:22.290Z,77.20
2018-02-19T03:32:00.828Z,77.20
2018-02-19T03:34:40.079Z,76.40
2018-02-19T03:37:19.486Z,77.30
2018-02-19T03:39:57.897Z,77.00
2018-02-19T03:42:37.858Z,77.30
2018-02-19T03:45:17.205Z,77.20
2018-02-19T03:47:57.703Z,77.80
2018-02-19T03:50:40.675Z,78.50
2018-02-19T03:53:21.894Z,78.30
2018-02-19T03:56:01.091Z,77.60
2018-02-19T03:58:40.690Z,77.40
2018-02-19T04:01:19.075Z,77.60
2018-02-19T04:04:01.793Z,77.50
2018-02-19T04:06:42.257Z,77.90
2018-02-19T04:09:20.737Z,78.00
2018-02-19T04:11:59.422Z,77.70
2018-02-19T04:14:37.723Z,77.80
2018-02-19T04:17:18.209Z,78.40
2018-02-19T04:19:56.754Z,78.40
2018-02-19T04:22:36.363Z,77.80
2018-02-19T04:25:14.930Z,77.70
2018-02-19T04:27:53.491Z,77.70
2018-02-19T04:30:31.926Z,78.10
2018-02-19T04:33:10.276Z,78.20
2018-02-19T04:35:48.838Z,78.40
2018-02-19T04:38:28.380Z,78.60
2018-02-19T04:41:07.035Z,78.70
2018-02-19T04:43:48.705Z,79.00
2018-02-19T04:46:33.225Z,79.00
2018-02-19T04:49:16.059Z,79.50
2018-02-19T04:51:54.741Z,79.50
2018-02-19T04:54:34.424Z,79.90
2018-02-19T04:57:12.905Z,79.80
2018-02-19T04:59:54.360Z,80.50
2018-02-19T05:02:33.410Z,80.60
2018-02-19T05:05:14.592Z,80.80
2018-02-19T05:07:55.163Z,81.70
2018-02-19T05:10:33.757Z,81.70
2018-02-19T05:13:12.414Z,81.90
2018-02-19T05:15:51.062Z,82.00
2018-02-19T05:18:29.715Z,82.30
2018-02-19T05:21:08.086Z,82.40
2018-02-19T05:23:46.697Z,82.70
2018-02-19T05:26:25.148Z,82.60
2018-02-19T05:29:03.582Z,82.60
2018-02-19T05:31:43.063Z,82.60
2018-02-19T05:34:21.867Z,82.50
2018-02-19T05:36:59.406Z,82.60
2018-02-19T05:39:38.059Z,82.70
2018-02-19T05:42:17.623Z,82.20
2018-02-19T05:44:56.000Z,82.20
2018-02-19T05:47:35.394Z,81.80
2018-02-19T05:50:13.604Z,81.90
2018-02-19T05:52:52.305Z,81.90
2018-02-19T05:55:31.666Z,82.10
2018-02-19T05:58:10.071Z,82.20
2018-02-19T06:00:48.537Z,82.40
2018-02-19T06:03:29.103Z,82.10
2018-02-19T06:06:08.583Z,82.00
2018-02-19T06:08:47.989Z,82.00
2018-02-19T06:11:26.533Z,81.70
2018-02-19T06:14:08.503Z,81.50
2018-02-19T06:16:46.554Z,80.90
2018-02-19T06:19:27.124Z,80.80
2018-02-19T06:22:05.590Z,80.30
2018-02-19T06:24:44.014Z,80.50
2018-02-19T06:27:22.689Z,80.70
2018-02-19T06:30:02.344Z,80.90
2018-02-19T06:32:42.884Z,80.70
2018-02-19T06:35:24.531Z,80.70
2018-02-19T06:38:01.711Z,80.70
2018-02-19T06:40:40.631Z,80.80
2018-02-19T06:46:00.669Z,80.70
2018-02-19T06:48:39.170Z,80.60
2018-02-19T06:51:17.575Z,80.60
2018-02-19T06:56:36.478Z,80.40
2018-02-19T06:59:15.001Z,80.30
2018-02-19T07:01:57.638Z,80.10
2018-02-19T07:04:37.229Z,80.00
2018-02-19T07:07:18.681Z,80.00
2018-02-19T07:09:58.374Z,79.70
2018-02-19T07:12:38.197Z,79.30
2018-02-19T07:15:16.782Z,79.20
2018-02-19T07:17:55.412Z,79.20
2018-02-19T07:20:38.090Z,79.30
2018-02-19T07:23:18.677Z,79.50
2018-02-19T07:25:57.375Z,79.50
2018-02-19T07:28:36.041Z,79.70
2018-02-19T07:31:14.649Z,79.90
2018-02-19T07:33:53.373Z,80.60
2018-02-19T07:36:32.702Z,80.90
2018-02-19T07:39:11.328Z,81.00
2018-02-19T07:41:50.756Z,81.20
2018-02-19T07:44:29.257Z,80.80
2018-02-19T07:47:07.801Z,81.90
2018-02-19T07:49:46.399Z,82.00
2018-02-19T07:52:23.715Z,82.50
2018-02-19T07:55:03.286Z,83.00
2018-02-19T07:57:42.728Z,83.10
2018-02-19T08:00:25.880Z,82.40
2018-02-19T08:03:04.880Z,82.70
2018-02-19T08:05:45.506Z,82.00
2018-02-19T08:08:25.091Z,82.00
2018-02-19T08:11:07.912Z,81.90
2018-02-19T08:13:48.207Z,81.20
2018-02-19T08:16:27.666Z,80.90
2018-02-19T08:19:06.233Z,81.30
2018-02-19T08:21:43.858Z,81.30
2018-02-19T08:24:21.352Z,81.00
2018-02-19T08:27:00.000Z,80.90
2018-02-19T08:29:37.898Z,79.60
2018-02-19T08:32:19.597Z,79.50
2018-02-19T08:34:58.218Z,78.60
2018-02-19T08:37:38.729Z,78.30
2018-02-19T08:40:17.379Z,79.30
2018-02-19T08:42:56.339Z,79.00
2018-02-19T08:45:37.635Z,79.80
2018-02-19T08:48:16.231Z,79.70
2018-02-19T08:50:55.751Z,80.10
2018-02-19T08:53:35.984Z,80.10
2018-02-19T08:56:16.985Z,80.00
2018-02-19T08:58:56.508Z,76.50
2018-02-19T09:01:35.878Z,74.80
2018-02-19T09:04:16.432Z,74.70
2018-02-19T09:06:57.016Z,75.40
2018-02-19T09:09:35.661Z,75.60
2018-02-19T09:12:14.252Z,75.90
2018-02-19T09:14:54.113Z,76.00
2018-02-19T09:17:32.752Z,75.00
2018-02-19T09:20:13.240Z,74.60
2018-02-19T09:22:52.674Z,74.90
2018-02-19T09:25:31.728Z,74.80
2018-02-19T09:28:09.771Z,75.60
2018-02-19T09:30:48.368Z,76.10
2018-02-19T09:33:25.973Z,76.10
2018-02-19T09:36:05.615Z,76.10
2018-02-19T09:38:44.362Z,76.10
2018-02-19T09:41:23.177Z,74.30
2018-02-19T09:44:02.982Z,73.10
2018-02-19T09:46:41.332Z,71.40
2018-02-19T09:49:20.737Z,72.30
2018-02-19T09:51:59.474Z,73.00
2018-02-19T09:54:37.975Z,73.90
2018-02-19T09:57:16.480Z,74.70
2018-02-19T09:59:54.815Z,75.10
2018-02-19T10:02:35.379Z,74.20
2018-02-19T10:05:14.013Z,74.20
2018-02-19T10:07:52.525Z,73.30
2018-02-19T10:10:30.124Z,72.90
2018-02-19T10:13:09.778Z,73.60
2018-02-19T10:15:49.286Z,74.60
2018-02-19T10:18:28.824Z,74.70
2018-02-19T10:21:08.428Z,75.00
2018-02-19T10:23:47.447Z,74.80
2018-02-19T10:26:25.525Z,74.50
2018-02-19T10:29:04.221Z,75.00
2018-02-19T10:31:42.816Z,74.70
2018-02-19T10:34:21.258Z,75.30
2018-02-19T10:37:00.924Z,75.20
2018-02-19T10:39:41.374Z,74.30
2018-02-19T10:42:19.109Z,73.90
2018-02-19T10:44:58.518Z,72.80
2018-02-19T10:47:37.014Z,73.00
2018-02-19T10:50:16.566Z,72.40
2018-02-19T10:52:56.209Z,72.90
2018-02-19T10:55:35.252Z,73.20
2018-02-19T10:58:13.311Z,73.80
2018-02-19T11:00:51.902Z,75.10
2018-02-19T11:03:32.589Z,75.60
2018-02-19T11:06:11.233Z,75.40
2018-02-19T11:08:50.916Z,75.60
2018-02-19T11:11:30.546Z,74.40
2018-02-19T11:14:10.005Z,74.70
2018-02-19T11:16:48.526Z,74.40
2018-02-19T11:19:27.063Z,74.90
2018-02-19T11:22:05.644Z,75.60
2018-02-19T11:24:44.328Z,74.80
2018-02-19T11:27:22.852Z,74.70
2018-02-19T11:30:01.280Z,74.70
2018-02-19T11:32:40.830Z,67.00
2018-02-19T11:35:19.469Z,66.90
2018-02-19T11:37:58.213Z,67.60
2018-02-19T11:40:35.814Z,68.00
2018-02-19T11:43:14.283Z,66.50
2018-02-19T11:45:52.825Z,64.30
2018-02-19T11:48:31.340Z,63.60
2018-02-19T11:51:09.880Z,61.70
2018-02-19T11:53:47.670Z,62.10
2018-02-19T11:56:26.318Z,63.60
2018-02-19T11:59:06.303Z,61.80
2018-02-19T12:01:45.444Z,62.30
2018-02-19T12:04:23.987Z,61.10
2018-02-19T12:07:01.804Z,60.40
2018-02-19T12:09:40.840Z,62.10
2018-02-19T12:12:20.072Z,61.60
2018-02-19T12:15:00.424Z,60.00
2018-02-19T12:17:39.365Z,59.70
2018-02-19T12:20:17.985Z,59.90
2018-02-19T12:22:57.560Z,60.50
2018-02-19T12:25:36.141Z,60.50
2018-02-19T12:28:15.690Z,62.00
2018-02-19T12:30:54.403Z,61.90
2018-02-19T12:33:32.826Z,61.00
2018-02-19T12:36:11.012Z,63.80
2018-02-19T12:38:49.586Z,60.20
2018-02-19T12:41:27.365Z,60.80
2018-02-19T12:44:06.452Z,61.10
2018-02-19T12:46:44.717Z,61.30
2018-02-19T12:49:22.244Z,62.70
2018-02-19T12:52:00.832Z,57.30
2018-02-19T12:54:39.618Z,57.70
2018-02-19T12:57:18.096Z,58.50
2018-02-19T12:59:56.946Z,61.10
2018-02-19T13:02:35.500Z,61.10
2018-02-19T13:05:14.026Z,58.90
2018-02-19T13:07:53.657Z,59.00
2018-02-19T13:10:33.216Z,59.10
2018-02-19T13:13:12.823Z,58.90
2018-02-19T13:15:52.361Z,58.10
2018-02-19T13:18:32.092Z,58.20
2018-02-19T13:21:10.701Z,58.30
2018-02-19T13:23:50.259Z,58.40
2018-02-19T13:26:29.786Z,60.60
2018-02-19T13:29:10.254Z,60.10
2018-02-19T13:31:49.877Z,59.20
2018-02-19T13:34:28.297Z,59.30
2018-02-19T13:37:06.897Z,57.50
2018-02-19T13:39:46.270Z,55.00
2018-02-19T13:42:24.794Z,54.90
2018-02-19T13:45:03.179Z,54.40
2018-02-19T13:47:41.090Z,56.30
2018-02-19T13:50:19.632Z,56.20
2018-02-19T13:52:58.599Z,55.60
2018-02-19T13:55:37.097Z,54.20
2018-02-19T13:58:16.492Z,53.10
2018-02-19T14:00:56.987Z,52.90
2018-02-19T14:03:37.584Z,55.50
2018-02-19T14:06:16.219Z,55.50
2018-02-19T14:08:55.802Z,55.20
2018-02-19T14:11:34.526Z,55.00
2018-02-19T14:14:13.248Z,57.00
2018-02-19T14:16:51.791Z,55.30
2018-02-19T14:19:31.383Z,53.00
2018-02-19T14:22:09.932Z,54.10
2018-02-19T14:24:48.444Z,53.00
2018-02-19T14:27:27.070Z,52.00
2018-02-19T14:30:06.870Z,53.10
2018-02-19T14:32:45.565Z,53.00
2018-02-19T14:35:24.096Z,51.80
2018-02-19T14:38:02.540Z,51.80
2018-02-19T14:40:39.203Z,52.40
2018-02-19T14:43:17.869Z,53.00
2018-02-19T14:45:57.404Z,53.80
2018-02-19T14:48:36.883Z,55.10
2018-02-19T14:51:16.811Z,55.30
2018-02-19T14:53:55.233Z,54.10
2018-02-19T14:56:33.823Z,55.10
2018-02-19T14:59:11.262Z,51.90
2018-02-19T15:01:51.433Z,52.50
2018-02-19T15:04:29.800Z,53.80
2018-02-19T15:07:08.496Z,53.50
2018-02-19T15:09:48.151Z,53.70
2018-02-19T15:12:26.825Z,53.30
2018-02-19T15:15:06.434Z,51.10
2018-02-19T15:17:46.247Z,53.20
2018-02-19T15:20:25.856Z,53.20
2018-02-19T15:23:05.437Z,48.90
2018-02-19T15:25:44.075Z,49.00
2018-02-19T15:28:22.710Z,49.90
2018-02-19T15:31:00.198Z,53.20
2018-02-19T15:33:39.716Z,53.60
2018-02-19T15:36:18.379Z,55.00
2018-02-19T15:38:56.704Z,56.10
2018-02-19T15:41:36.427Z,57.00
2018-02-19T15:44:15.046Z,56.90
2018-02-19T15:46:54.585Z,57.30
2018-02-19T15:49:34.025Z,57.50
2018-02-19T15:52:12.833Z,60.20
2018-02-19T15:54:51.337Z,60.30
2018-02-19T15:57:30.855Z,60.30
2018-02-19T16:00:10.539Z,59.90
2018-02-19T16:02:49.062Z,59.30
2018-02-19T16:05:27.947Z,60.80
2018-02-19T16:08:06.562Z,61.40
2018-02-19T16:10:46.274Z,60.80
2018-02-19T16:13:25.051Z,61.50
2018-02-19T16:16:03.822Z,62.10
2018-02-19T16:18:42.840Z,63.00
2018-02-19T16:21:22.144Z,63.80
2018-02-19T16:24:00.756Z,63.80
2018-02-19T16:26:39.205Z,63.60
2018-02-19T16:29:18.636Z,62.40
2018-02-19T16:31:59.261Z,61.10
2018-02-19T16:34:37.835Z,61.50
2018-02-19T16:37:16.250Z,52.00
2018-02-19T16:39:54.668Z,51.10
2018-02-19T16:42:33.170Z,53.20
2018-02-19T16:45:11.589Z,54.10
2018-02-19T16:47:57.237Z,48.70
2018-02-19T16:50:37.013Z,59.20
2018-02-19T16:53:15.560Z,58.70
2018-02-19T16:55:55.296Z,60.40
2018-02-19T16:58:35.995Z,60.40
2018-02-19T17:01:14.515Z,60.50
2018-02-19T17:03:52.978Z,60.10
2018-02-19T17:06:31.578Z,58.90
2018-02-19T17:09:10.933Z,47.70
2018-02-19T17:11:50.560Z,53.80
2018-02-19T17:14:28.903Z,51.00
2018-02-19T17:17:07.483Z,46.30
2018-02-19T17:19:46.121Z,46.00
2018-02-19T17:22:25.532Z,46.40
2018-02-19T17:25:05.219Z,53.00
2018-02-19T17:27:43.671Z,52.90
2018-02-19T17:30:23.148Z,49.10
2018-02-19T17:33:01.829Z,49.00
2018-02-19T17:35:41.250Z,41.20
2018-02-19T17:38:20.982Z,38.00
2018-02-19T17:40:59.881Z,37.70
2018-02-19T17:43:38.304Z,35.70
2018-02-19T17:46:17.893Z,40.60
2018-02-19T17:48:55.454Z,27.80
2018-02-19T17:51:35.351Z,25.50
2018-02-19T17:54:14.487Z,30.20
2018-02-19T17:56:53.100Z,28.10
2018-02-19T17:59:31.505Z,28.40
2018-02-19T18:02:10.054Z,29.30
2018-02-19T18:04:48.684Z,30.00
2018-02-19T18:07:27.228Z,28.70
2018-02-19T18:10:07.003Z,26.30
2018-02-19T18:12:45.706Z,26.20
2018-02-19T18:15:26.367Z,22.30
2018-02-19T18:18:05.089Z,22.40
2018-02-19T18:20:44.220Z,23.10
2018-02-19T18:23:22.418Z,24.20
2018-02-19T18:26:02.141Z,27.20
2018-02-19T18:28:40.764Z,27.50
2018-02-19T18:31:19.318Z,24.60
2018-02-19T18:33:57.789Z,25.60
2018-02-19T18:36:36.182Z,25.40
2018-02-19T18:39:14.671Z,25.50
2018-02-19T18:41:53.341Z,26.30
2018-02-19T18:44:31.868Z,27.00
2018-02-19T18:47:11.539Z,24.40
2018-02-19T18:49:49.974Z,24.30
2018-02-19T18:52:28.598Z,26.20
2018-02-19T18:55:07.062Z,24.90
2018-02-19T18:57:46.453Z,24.30
2018-02-19T19:00:25.148Z,24.00
2018-02-19T19:03:04.773Z,21.50
2018-02-19T19:05:45.135Z,23.20
2018-02-19T19:08:35.836Z,22.60
2018-02-19T19:11:14.271Z,22.60
2018-02-19T19:13:52.715Z,21.60
2018-02-19T19:16:31.287Z,23.20
2018-02-19T19:19:10.388Z,25.00
2018-02-19T19:21:48.622Z,23.40
2018-02-19T19:24:27.164Z,25.40
2018-02-19T19:27:05.985Z,25.60
2018-02-19T19:29:44.648Z,26.00
2018-02-19T19:32:23.049Z,24.30
2018-02-19T19:35:03.560Z,26.70
2018-02-19T19:37:42.101Z,24.10
2018-02-19T19:40:20.814Z,23.60
2018-02-19T19:42:59.392Z,20.00
2018-02-19T19:45:38.008Z,22.60
2018-02-19T19:48:18.452Z,23.50
2018-02-19T19:50:57.002Z,25.30
2018-02-19T19:53:35.541Z,24.90
2018-02-19T19:56:14.059Z,21.60
2018-02-19T19:58:52.597Z,20.10
2018-02-19T20:01:30.767Z,23.30
2018-02-19T20:04:09.232Z,20.00
2018-02-19T20:06:47.920Z,21.70
2018-02-19T20:09:26.475Z,22.50
2018-02-19T20:12:05.232Z,20.00
2018-02-19T20:14:43.934Z,23.80
2018-02-19T20:17:23.529Z,25.40
2018-02-19T20:20:02.174Z,25.40
2018-02-19T20:22:41.636Z,23.90
2018-02-19T20:25:20.177Z,23.50
2018-02-19T20:27:59.593Z,24.20
2018-02-19T20:30:38.033Z,27.00
2018-02-19T20:33:16.763Z,27.90
2018-02-19T20:35:55.176Z,28.00
2018-02-19T20:38:33.859Z,24.30
2018-02-19T20:41:12.573Z,26.70
2018-02-19T20:43:52.161Z,26.80
2018-02-19T20:46:30.766Z,26.90
2018-02-19T20:49:10.170Z,28.90
2018-02-19T20:51:47.932Z,28.80
2018-02-19T20:54:27.675Z,27.10
2018-02-19T20:57:06.322Z,29.20
2018-02-19T20:59:45.897Z,29.90
2018-02-19T21:02:24.401Z,29.90
2018-02-19T21:05:02.936Z,30.20
2018-02-19T21:07:41.747Z,28.60
2018-02-19T21:10:21.266Z,27.90
2018-02-19T21:12:59.866Z,30.10
2018-02-19T21:15:38.549Z,36.80
2018-02-19T21:18:17.026Z,38.30
2018-02-19T21:20:55.439Z,39.00
2018-02-19T21:23:34.144Z,27.70
2018-02-19T21:26:12.683Z,27.60
2018-02-19T21:28:51.261Z,28.20
2018-02-19T21:31:30.949Z,29.50
2018-02-19T21:34:10.117Z,29.70
2018-02-19T21:36:48.877Z,35.20
2018-02-19T21:39:28.181Z,29.60
2018-02-19T21:42:06.968Z,31.20
2018-02-19T21:44:48.756Z,29.80
2018-02-19T21:47:27.598Z,33.40
2018-02-19T21:50:06.082Z,28.90
2018-02-19T21:52:44.495Z,28.20
2018-02-19T21:55:23.195Z,30.30
2018-02-19T21:58:01.593Z,32.60
2018-02-19T22:00:40.062Z,32.10
2018-02-19T22:03:18.775Z,32.30
2018-02-19T22:05:57.490Z,30.00
2018-02-19T22:08:36.447Z,30.30
2018-02-19T22:11:17.926Z,27.60
2018-02-19T22:13:56.386Z,27.30
2018-02-19T22:16:34.946Z,25.30
2018-02-19T22:19:15.793Z,27.30
2018-02-19T22:21:55.313Z,27.20
2018-02-19T22:24:33.701Z,29.50
2018-02-19T22:27:12.301Z,29.90
2018-02-19T22:29:50.634Z,28.30
2018-02-19T22:32:29.275Z,28.80
2018-02-19T22:35:09.845Z,31.20
2018-02-19T22:37:48.355Z,28.80
2018-02-19T22:40:26.972Z,30.90
2018-02-19T22:43:05.378Z,33.80
2018-02-19T22:45:44.043Z,35.30
2018-02-19T22:48:22.720Z,33.60
2018-02-19T22:51:01.494Z,33.30
2018-02-19T22:53:39.954Z,34.70
2018-02-19T22:56:18.529Z,35.50
2018-02-19T22:58:58.007Z,35.60
2018-02-19T23:01:36.548Z,31.70
2018-02-19T23:04:14.935Z,34.00
2018-02-19T23:06:54.946Z,35.30
2018-02-19T23:09:33.919Z,35.70
2018-02-19T23:12:13.456Z,30.40
2018-02-19T23:14:53.456Z,27.80
2018-02-19T23:17:34.242Z,30.50
2018-02-19T23:20:12.366Z,30.40
2018-02-19T23:22:51.121Z,29.80
2018-02-19T23:25:30.181Z,29.30
2018-02-19T23:28:09.366Z,32.90
2018-02-19T23:30:48.006Z,32.80
2018-02-19T23:33:32.614Z,31.70
2018-02-19T23:36:11.253Z,29.50
2018-02-19T23:38:49.859Z,27.40
2018-02-19T23:41:29.333Z,26.70
2018-02-19T23:44:10.965Z,26.70
2018-02-19T23:46:48.634Z,33.50
2018-02-19T23:49:28.681Z,36.40
2018-02-19T23:52:06.681Z,30.70
2018-02-19T23:54:45.492Z,35.00
2018-02-19T23:57:23.957Z,34.20
